Terminal Aerodrome Forecast
Issued by NWS

Home | Current Version | Previous Version | Graphics & Text | Print | Product List | Glossary On
Versions: 1 2 3 4 5 6 7 8 9 10 11 12 13 14
000
FTUS43 KBIS 250521
TAFJMS
TAF
KJMS 250521Z 2506/2606 15010KT P6SM FEW080 SCT250
     FM251000 07005KT P6SM FEW080 SCT140
     FM251500 36005KT P6SM VCTS SCT080CB BKN150
     FM252100 35007KT P6SM FEW130 SCT200
     FM260500 34004KT P6SM BKN120 BKN200=

USA.gov is the U.S. government's official web portal to all federal, state and local government web resources and services.